sensor_id;sensor_type;location;lat;lon;timestamp;pressure;altitude;pressure_sealevel;temperature;humidity
63883;BME280;50047;50.596;30.466;2023-08-08T00:01:17;98745.31;;;16.56;70.50
63883;BME280;50047;50.596;30.466;2023-08-08T00:03:45;98745.59;;;16.40;70.52
63883;BME280;50047;50.596;30.466;2023-08-08T00:06:12;98747.61;;;16.28;71.06
63883;BME280;50047;50.596;30.466;2023-08-08T00:08:40;98751.61;;;16.43;72.28
63883;BME280;50047;50.596;30.466;2023-08-08T00:11:08;98753.64;;;16.70;72.10
63883;BME280;50047;50.596;30.466;2023-08-08T00:13:36;98751.60;;;16.80;71.39
63883;BME280;50047;50.596;30.466;2023-08-08T00:16:04;98752.19;;;16.77;71.03
63883;BME280;50047;50.596;30.466;2023-08-08T00:18:32;98755.33;;;16.66;70.87
63883;BME280;50047;50.596;30.466;2023-08-08T00:21:00;98752.86;;;16.53;70.76
63883;BME280;50047;50.596;30.466;2023-08-08T00:23:28;98757.21;;;16.40;71.02
63883;BME280;50047;50.596;30.466;2023-08-08T00:25:56;98759.98;;;16.23;71.03
63883;BME280;50047;50.596;30.466;2023-08-08T00:28:23;98765.45;;;16.11;71.68
63883;BME280;50047;50.596;30.466;2023-08-08T00:30:52;98762.56;;;16.25;72.83
63883;BME280;50047;50.596;30.466;2023-08-08T00:33:20;98759.20;;;16.60;72.37
63883;BME280;50047;50.596;30.466;2023-08-08T00:35:48;98762.42;;;16.71;71.63
63883;BME280;50047;50.596;30.466;2023-08-08T00:38:16;98764.30;;;16.72;71.08
63883;BME280;50047;50.596;30.466;2023-08-08T00:40:46;98760.77;;;16.58;70.86
63883;BME280;50047;50.596;30.466;2023-08-08T00:43:13;98760.96;;;16.46;70.83
63883;BME280;50047;50.596;30.466;2023-08-08T00:45:42;98768.37;;;16.30;71.05
63883;BME280;50047;50.596;30.466;2023-08-08T00:48:11;98766.63;;;16.15;71.19
63883;BME280;50047;50.596;30.466;2023-08-08T00:50:42;98762.96;;;16.01;71.75
63883;BME280;50047;50.596;30.466;2023-08-08T00:53:12;98760.40;;;16.20;73.08
63883;BME280;50047;50.596;30.466;2023-08-08T00:55:40;98760.86;;;16.49;72.66
63883;BME280;50047;50.596;30.466;2023-08-08T00:58:08;98764.55;;;16.60;72.01
63883;BME280;50047;50.596;30.466;2023-08-08T01:00:36;98763.46;;;16.55;71.57
63883;BME280;50047;50.596;30.466;2023-08-08T01:03:04;98762.46;;;16.43;71.44
63883;BME280;50047;50.596;30.466;2023-08-08T01:05:37;98763.29;;;16.27;71.54
63883;BME280;50047;50.596;30.466;2023-08-08T01:08:07;98767.86;;;16.11;71.67
63883;BME280;50047;50.596;30.466;2023-08-08T01:10:39;98767.74;;;15.94;71.90
63883;BME280;50047;50.596;30.466;2023-08-08T01:13:09;98764.36;;;15.81;72.45
63883;BME280;50047;50.596;30.466;2023-08-08T01:15:39;98768.64;;;16.01;73.70
63883;BME280;50047;50.596;30.466;2023-08-08T01:18:08;98768.70;;;16.36;73.34
63883;BME280;50047;50.596;30.466;2023-08-08T01:20:37;98768.60;;;16.48;72.47
63883;BME280;50047;50.596;30.466;2023-08-08T01:23:18;98771.30;;;16.43;72.08
63883;BME280;50047;50.596;30.466;2023-08-08T01:25:48;98775.06;;;16.29;71.84
63883;BME280;50047;50.596;30.466;2023-08-08T01:28:19;98775.77;;;16.17;71.68
63883;BME280;50047;50.596;30.466;2023-08-08T01:30:48;98777.55;;;16.00;71.85
63883;BME280;50047;50.596;30.466;2023-08-08T01:33:16;98781.02;;;15.83;72.35
63883;BME280;50047;50.596;30.466;2023-08-08T01:35:49;98779.13;;;15.68;73.02
63883;BME280;50047;50.596;30.466;2023-08-08T01:38:24;98783.06;;;15.85;74.07
63883;BME280;50047;50.596;30.466;2023-08-08T01:40:56;98790.91;;;16.15;73.88
63883;BME280;50047;50.596;30.466;2023-08-08T01:43:26;98798.04;;;16.31;73.09
63883;BME280;50047;50.596;30.466;2023-08-08T01:45:54;98800.41;;;16.31;72.45
63883;BME280;50047;50.596;30.466;2023-08-08T01:48:22;98802.70;;;16.18;72.15
63883;BME280;50047;50.596;30.466;2023-08-08T01:50:51;98802.15;;;16.05;71.88
63883;BME280;50047;50.596;30.466;2023-08-08T01:53:19;98803.53;;;15.87;72.57
63883;BME280;50047;50.596;30.466;2023-08-08T01:55:46;98800.70;;;15.72;72.11
63883;BME280;50047;50.596;30.466;2023-08-08T01:58:14;98803.05;;;15.60;72.86
63883;BME280;50047;50.596;30.466;2023-08-08T02:00:42;98798.63;;;15.77;74.48
63883;BME280;50047;50.596;30.466;2023-08-08T02:03:11;98796.42;;;16.14;74.00
63883;BME280;50047;50.596;30.466;2023-08-08T02:05:39;98802.31;;;16.26;72.87
63883;BME280;50047;50.596;30.466;2023-08-08T02:08:07;98806.98;;;16.20;72.82
63883;BME280;50047;50.596;30.466;2023-08-08T02:10:35;98805.00;;;16.10;72.28
63883;BME280;50047;50.596;30.466;2023-08-08T02:13:03;98805.27;;;15.95;72.44
63883;BME280;50047;50.596;30.466;2023-08-08T02:15:31;98805.14;;;15.77;72.59
63883;BME280;50047;50.596;30.466;2023-08-08T02:17:59;98808.48;;;15.63;72.62
63883;BME280;50047;50.596;30.466;2023-08-08T02:20:28;98814.62;;;15.52;73.05
63883;BME280;50047;50.596;30.466;2023-08-08T02:22:56;98821.34;;;15.68;74.61
63883;BME280;50047;50.596;30.466;2023-08-08T02:25:23;98824.95;;;16.02;74.59
63883;BME280;50047;50.596;30.466;2023-08-08T02:27:51;98825.77;;;16.19;73.54
63883;BME280;50047;50.596;30.466;2023-08-08T02:30:19;98829.08;;;16.17;72.75
63883;BME280;50047;50.596;30.466;2023-08-08T02:32:47;98828.34;;;16.08;72.55
63883;BME280;50047;50.596;30.466;2023-08-08T02:35:15;98830.80;;;15.96;72.48
63883;BME280;50047;50.596;30.466;2023-08-08T02:37:42;98829.73;;;15.83;72.23
63883;BME280;50047;50.596;30.466;2023-08-08T02:40:10;98829.02;;;15.78;72.25
63883;BME280;50047;50.596;30.466;2023-08-08T02:42:38;98829.33;;;15.80;72.55
63883;BME280;50047;50.596;30.466;2023-08-08T02:45:07;98832.24;;;16.20;73.51
63883;BME280;50047;50.596;30.466;2023-08-08T02:47:35;98827.54;;;16.92;72.10
63883;BME280;50047;50.596;30.466;2023-08-08T02:50:03;98828.87;;;17.44;70.44
63883;BME280;50047;50.596;30.466;2023-08-08T02:52:31;98832.89;;;17.85;68.59
63883;BME280;50047;50.596;30.466;2023-08-08T02:54:59;98836.30;;;18.17;67.11
63883;BME280;50047;50.596;30.466;2023-08-08T02:57:27;98839.70;;;18.49;66.07
63883;BME280;50047;50.596;30.466;2023-08-08T02:59:55;98840.64;;;18.85;64.87
63883;BME280;50047;50.596;30.466;2023-08-08T03:02:23;98833.92;;;19.18;63.99
63883;BME280;50047;50.596;30.466;2023-08-08T03:04:52;98832.39;;;19.54;62.97
63883;BME280;50047;50.596;30.466;2023-08-08T03:07:21;98837.38;;;19.91;62.28
63883;BME280;50047;50.596;30.466;2023-08-08T03:09:50;98838.62;;;20.29;61.12
63883;BME280;50047;50.596;30.466;2023-08-08T03:12:17;98841.94;;;20.69;60.08
63883;BME280;50047;50.596;30.466;2023-08-08T03:14:46;98844.16;;;21.10;59.69
63883;BME280;50047;50.596;30.466;2023-08-08T03:17:14;98837.44;;;21.53;58.00
63883;BME280;50047;50.596;30.466;2023-08-08T03:19:42;98847.28;;;22.04;57.36
63883;BME280;50047;50.596;30.466;2023-08-08T03:22:11;98848.85;;;22.58;56.70
63883;BME280;50047;50.596;30.466;2023-08-08T03:24:39;98851.64;;;23.07;55.05
63883;BME280;50047;50.596;30.466;2023-08-08T03:27:07;98859.04;;;23.53;53.86
63883;BME280;50047;50.596;30.466;2023-08-08T03:29:35;98859.83;;;23.98;52.46
63883;BME280;50047;50.596;30.466;2023-08-08T03:32:03;98865.88;;;24.44;51.77
63883;BME280;50047;50.596;30.466;2023-08-08T03:34:32;98865.09;;;24.91;51.07
63883;BME280;50047;50.596;30.466;2023-08-08T03:37:00;98867.35;;;25.33;50.16
63883;BME280;50047;50.596;30.466;2023-08-08T03:39:28;98880.03;;;25.72;49.30
63883;BME280;50047;50.596;30.466;2023-08-08T03:41:56;98882.64;;;26.04;48.64
63883;BME280;50047;50.596;30.466;2023-08-08T03:44:24;98878.86;;;26.40;46.62
63883;BME280;50047;50.596;30.466;2023-08-08T03:46:52;98885.11;;;26.78;45.33
63883;BME280;50047;50.596;30.466;2023-08-08T03:49:36;98893.43;;;27.21;45.69
63883;BME280;50047;50.596;30.466;2023-08-08T03:52:04;98894.52;;;27.52;43.86
63883;BME280;50047;50.596;30.466;2023-08-08T03:54:32;98894.02;;;27.76;43.01
63883;BME280;50047;50.596;30.466;2023-08-08T03:57:00;98893.35;;;27.93;42.35
63883;BME280;50047;50.596;30.466;2023-08-08T03:59:28;98897.30;;;28.12;42.36
63883;BME280;50047;50.596;30.466;2023-08-08T04:01:56;98898.65;;;28.39;41.29
63883;BME280;50047;50.596;30.466;2023-08-08T04:04:24;98894.59;;;28.73;40.66
63883;BME280;50047;50.596;30.466;2023-08-08T04:06:51;98901.92;;;29.00;39.84
63883;BME280;50047;50.596;30.466;2023-08-08T04:09:19;98908.02;;;29.29;39.48
63883;BME280;50047;50.596;30.466;2023-08-08T04:11:47;98909.58;;;29.70;38.82
63883;BME280;50047;50.596;30.466;2023-08-08T04:14:15;98914.33;;;30.07;38.17
63883;BME280;50047;50.596;30.466;2023-08-08T04:16:42;98912.98;;;30.47;37.89
63883;BME280;50047;50.596;30.466;2023-08-08T04:19:10;98921.16;;;30.81;37.63
63883;BME280;50047;50.596;30.466;2023-08-08T04:21:38;98929.63;;;31.17;36.46
63883;BME280;50047;50.596;30.466;2023-08-08T04:24:06;98930.14;;;31.56;35.25
63883;BME280;50047;50.596;30.466;2023-08-08T04:26:35;98933.15;;;32.00;35.30
63883;BME280;50047;50.596;30.466;2023-08-08T04:29:03;98930.63;;;32.38;34.33
63883;BME280;50047;50.596;30.466;2023-08-08T04:31:31;98941.26;;;32.69;33.92
63883;BME280;50047;50.596;30.466;2023-08-08T04:34:00;98943.96;;;32.97;33.27
63883;BME280;50047;50.596;30.466;2023-08-08T04:36:29;98944.46;;;33.36;33.31
63883;BME280;50047;50.596;30.466;2023-08-08T04:38:57;98944.46;;;33.65;32.56
63883;BME280;50047;50.596;30.466;2023-08-08T04:41:25;98955.27;;;33.96;32.05
63883;BME280;50047;50.596;30.466;2023-08-08T04:43:53;98961.75;;;34.32;31.39
63883;BME280;50047;50.596;30.466;2023-08-08T04:46:21;98966.73;;;34.69;30.85
63883;BME280;50047;50.596;30.466;2023-08-08T04:48:49;98971.27;;;35.12;30.52
63883;BME280;50047;50.596;30.466;2023-08-08T04:51:17;98978.02;;;35.58;30.48
63883;BME280;50047;50.596;30.466;2023-08-08T04:53:45;98982.60;;;35.94;29.46
63883;BME280;50047;50.596;30.466;2023-08-08T04:56:13;98987.06;;;36.39;29.11
63883;BME280;50047;50.596;30.466;2023-08-08T04:58:41;98988.29;;;36.88;28.18
63883;BME280;50047;50.596;30.466;2023-08-08T05:01:08;98987.16;;;37.34;27.24
63883;BME280;50047;50.596;30.466;2023-08-08T05:03:39;98987.89;;;37.63;27.13
63883;BME280;50047;50.596;30.466;2023-08-08T05:06:08;98987.55;;;38.00;26.45
63883;BME280;50047;50.596;30.466;2023-08-08T05:08:35;98981.77;;;38.44;25.90
63883;BME280;50047;50.596;30.466;2023-08-08T05:11:03;98984.56;;;38.78;25.34
63883;BME280;50047;50.596;30.466;2023-08-08T05:13:31;98985.23;;;39.09;25.73
63883;BME280;50047;50.596;30.466;2023-08-08T05:15:58;98979.09;;;39.53;24.77
63883;BME280;50047;50.596;30.466;2023-08-08T05:18:26;98982.14;;;40.00;24.09
63883;BME280;50047;50.596;30.466;2023-08-08T05:20:54;98983.28;;;40.36;23.67
63883;BME280;50047;50.596;30.466;2023-08-08T05:23:21;98980.13;;;40.68;24.03
63883;BME280;50047;50.596;30.466;2023-08-08T05:25:49;98979.33;;;40.95;23.66
63883;BME280;50047;50.596;30.466;2023-08-08T05:28:17;98984.84;;;41.26;23.45
63883;BME280;50047;50.596;30.466;2023-08-08T05:30:45;98987.96;;;41.63;23.33
63883;BME280;50047;50.596;30.466;2023-08-08T05:33:13;98991.41;;;41.89;22.16
63883;BME280;50047;50.596;30.466;2023-08-08T05:35:40;98989.42;;;42.25;21.96
63883;BME280;50047;50.596;30.466;2023-08-08T05:38:08;98991.94;;;42.53;21.90
63883;BME280;50047;50.596;30.466;2023-08-08T05:40:36;98995.30;;;42.86;21.59
63883;BME280;50047;50.596;30.466;2023-08-08T05:43:04;98996.23;;;43.17;21.03
63883;BME280;50047;50.596;30.466;2023-08-08T05:45:32;98989.92;;;43.37;20.68
63883;BME280;50047;50.596;30.466;2023-08-08T05:47:59;98992.20;;;43.61;20.54
63883;BME280;50047;50.596;30.466;2023-08-08T05:50:28;98999.73;;;43.85;19.70
63883;BME280;50047;50.596;30.466;2023-08-08T05:52:55;99003.39;;;44.00;19.69
63883;BME280;50047;50.596;30.466;2023-08-08T05:55:23;98999.10;;;44.26;20.05
63883;BME280;50047;50.596;30.466;2023-08-08T05:57:51;99004.45;;;44.60;19.58
63883;BME280;50047;50.596;30.466;2023-08-08T06:00:19;99004.06;;;44.77;19.14
63883;BME280;50047;50.596;30.466;2023-08-08T06:02:47;99002.18;;;43.84;20.05
63883;BME280;50047;50.596;30.466;2023-08-08T06:05:16;99006.88;;;42.60;20.53
63883;BME280;50047;50.596;30.466;2023-08-08T06:07:44;99010.03;;;41.49;21.10
63883;BME280;50047;50.596;30.466;2023-08-08T06:10:12;99007.16;;;40.95;21.68
63883;BME280;50047;50.596;30.466;2023-08-08T06:12:41;99006.00;;;40.98;21.82
63883;BME280;50047;50.596;30.466;2023-08-08T06:15:09;99002.25;;;40.91;21.86
63883;BME280;50047;50.596;30.466;2023-08-08T06:17:37;99002.45;;;40.15;22.42
63883;BME280;50047;50.596;30.466;2023-08-08T06:20:05;99008.84;;;39.04;23.49
63883;BME280;50047;50.596;30.466;2023-08-08T06:22:34;99013.46;;;37.81;24.47
63883;BME280;50047;50.596;30.466;2023-08-08T06:25:02;99010.98;;;36.64;25.72
63883;BME280;50047;50.596;30.466;2023-08-08T06:27:30;99009.74;;;36.15;26.03
63883;BME280;50047;50.596;30.466;2023-08-08T06:29:58;99014.73;;;35.64;26.57
63883;BME280;50047;50.596;30.466;2023-08-08T06:32:27;99012.77;;;35.24;27.07
63883;BME280;50047;50.596;30.466;2023-08-08T06:34:54;99012.89;;;35.41;27.09
63883;BME280;50047;50.596;30.466;2023-08-08T06:37:22;99017.65;;;36.35;26.27
63883;BME280;50047;50.596;30.466;2023-08-08T06:39:50;99019.58;;;37.65;25.00
63883;BME280;50047;50.596;30.466;2023-08-08T06:42:21;99019.60;;;37.97;24.51
63883;BME280;50047;50.596;30.466;2023-08-08T06:44:56;99019.21;;;36.85;25.70
63883;BME280;50047;50.596;30.466;2023-08-08T06:47:24;99022.77;;;35.69;26.76
63883;BME280;50047;50.596;30.466;2023-08-08T06:49:52;99022.63;;;34.91;27.62
63883;BME280;50047;50.596;30.466;2023-08-08T06:52:21;99023.40;;;34.69;27.93
63883;BME280;50047;50.596;30.466;2023-08-08T06:54:49;99021.79;;;34.90;27.69
63883;BME280;50047;50.596;30.466;2023-08-08T06:57:17;99017.99;;;34.70;27.88
63883;BME280;50047;50.596;30.466;2023-08-08T06:59:45;99019.85;;;34.15;28.66
63883;BME280;50047;50.596;30.466;2023-08-08T07:02:19;99026.15;;;33.42;29.34
63883;BME280;50047;50.596;30.466;2023-08-08T07:04:47;99029.70;;;32.56;30.21
63883;BME280;50047;50.596;30.466;2023-08-08T07:07:14;99027.87;;;31.87;31.31
63883;BME280;50047;50.596;30.466;2023-08-08T07:09:43;99027.86;;;31.41;32.09
63883;BME280;50047;50.596;30.466;2023-08-08T07:12:11;99031.27;;;30.99;32.67
63883;BME280;50047;50.596;30.466;2023-08-08T07:14:39;99037.48;;;30.54;33.36
63883;BME280;50047;50.596;30.466;2023-08-08T07:17:07;99031.91;;;30.15;33.50
63883;BME280;50047;50.596;30.466;2023-08-08T07:19:35;99036.89;;;29.82;34.05
63883;BME280;50047;50.596;30.466;2023-08-08T07:22:03;99040.00;;;29.58;34.76
63883;BME280;50047;50.596;30.466;2023-08-08T07:24:31;99045.73;;;29.32;35.37
63883;BME280;50047;50.596;30.466;2023-08-08T07:26:59;99046.77;;;29.01;35.96
63883;BME280;50047;50.596;30.466;2023-08-08T07:29:27;99042.55;;;28.66;36.58
63883;BME280;50047;50.596;30.466;2023-08-08T07:31:55;99045.60;;;28.42;36.61
63883;BME280;50047;50.596;30.466;2023-08-08T07:34:23;99046.02;;;28.08;37.04
63883;BME280;50047;50.596;30.466;2023-08-08T07:36:50;99044.38;;;27.81;37.18
63883;BME280;50047;50.596;30.466;2023-08-08T07:39:18;99044.58;;;27.63;37.33
63883;BME280;50047;50.596;30.466;2023-08-08T07:41:46;99043.14;;;27.54;37.67
63883;BME280;50047;50.596;30.466;2023-08-08T07:44:14;99041.19;;;27.50;37.84
63883;BME280;50047;50.596;30.466;2023-08-08T07:46:41;99038.86;;;27.34;38.20
63883;BME280;50047;50.596;30.466;2023-08-08T07:49:10;99040.94;;;27.29;38.15
63883;BME280;50047;50.596;30.466;2023-08-08T07:51:37;99045.42;;;27.44;38.29
63883;BME280;50047;50.596;30.466;2023-08-08T07:54:05;99040.46;;;27.57;37.96
63883;BME280;50047;50.596;30.466;2023-08-08T07:56:36;99037.07;;;27.68;37.25
63883;BME280;50047;50.596;30.466;2023-08-08T07:59:04;99032.35;;;27.72;37.41
63883;BME280;50047;50.596;30.466;2023-08-08T08:01:32;99035.96;;;27.88;37.15
63883;BME280;50047;50.596;30.466;2023-08-08T08:04:00;99039.45;;;27.98;37.04
63883;BME280;50047;50.596;30.466;2023-08-08T08:06:30;99039.02;;;28.16;36.94
63883;BME280;50047;50.596;30.466;2023-08-08T08:08:58;99041.48;;;28.27;36.96
63883;BME280;50047;50.596;30.466;2023-08-08T08:11:27;99048.21;;;28.22;37.13
63883;BME280;50047;50.596;30.466;2023-08-08T08:13:55;99052.61;;;28.25;37.25
63883;BME280;50047;50.596;30.466;2023-08-08T08:16:23;99054.02;;;28.34;37.42
63883;BME280;50047;50.596;30.466;2023-08-08T08:18:51;99053.80;;;28.35;37.52
63883;BME280;50047;50.596;30.466;2023-08-08T08:21:19;99053.09;;;28.21;37.58
63883;BME280;50047;50.596;30.466;2023-08-08T08:23:47;99055.00;;;27.90;38.26
63883;BME280;50047;50.596;30.466;2023-08-08T08:26:15;99050.28;;;27.47;38.56
63883;BME280;50047;50.596;30.466;2023-08-08T08:28:43;99047.04;;;27.13;39.23
63883;BME280;50047;50.596;30.466;2023-08-08T08:31:10;99044.42;;;26.85;40.00
63883;BME280;50047;50.596;30.466;2023-08-08T08:33:38;99046.14;;;26.56;40.01
63883;BME280;50047;50.596;30.466;2023-08-08T08:36:06;99043.00;;;26.34;40.49
63883;BME280;50047;50.596;30.466;2023-08-08T08:38:34;99047.51;;;26.06;40.90
63883;BME280;50047;50.596;30.466;2023-08-08T08:41:02;99050.19;;;25.81;41.37
63883;BME280;50047;50.596;30.466;2023-08-08T08:43:31;99052.50;;;25.65;41.76
63883;BME280;50047;50.596;30.466;2023-08-08T08:46:00;99048.35;;;25.52;42.00
63883;BME280;50047;50.596;30.466;2023-08-08T08:48:37;99050.63;;;25.39;42.51
63883;BME280;50047;50.596;30.466;2023-08-08T08:51:05;99048.40;;;25.32;42.71
63883;BME280;50047;50.596;30.466;2023-08-08T08:53:34;99044.55;;;25.27;42.68
63883;BME280;50047;50.596;30.466;2023-08-08T08:56:07;99040.66;;;25.15;42.52
63883;BME280;50047;50.596;30.466;2023-08-08T08:58:36;99037.02;;;25.03;42.77
63883;BME280;50047;50.596;30.466;2023-08-08T09:01:04;99044.67;;;24.95;43.34
63883;BME280;50047;50.596;30.466;2023-08-08T09:03:32;99041.08;;;24.95;43.27
63883;BME280;50047;50.596;30.466;2023-08-08T09:06:00;99041.86;;;24.99;43.04
63883;BME280;50047;50.596;30.466;2023-08-08T09:08:29;99041.61;;;25.10;42.78
63883;BME280;50047;50.596;30.466;2023-08-08T09:10:57;99042.29;;;25.14;42.85
63883;BME280;50047;50.596;30.466;2023-08-08T09:13:25;99044.40;;;25.27;42.27
63883;BME280;50047;50.596;30.466;2023-08-08T09:15:54;99040.65;;;25.27;42.71
63883;BME280;50047;50.596;30.466;2023-08-08T09:18:23;99042.71;;;25.31;42.28
63883;BME280;50047;50.596;30.466;2023-08-08T09:20:52;99042.13;;;25.40;41.40
63883;BME280;50047;50.596;30.466;2023-08-08T09:23:22;99039.45;;;25.42;41.04
63883;BME280;50047;50.596;30.466;2023-08-08T09:25:50;99038.12;;;25.39;40.71
63883;BME280;50047;50.596;30.466;2023-08-08T09:28:17;99044.39;;;25.37;40.81
63883;BME280;50047;50.596;30.466;2023-08-08T09:30:46;99034.28;;;25.47;40.72
63883;BME280;50047;50.596;30.466;2023-08-08T09:33:14;99034.56;;;25.59;40.45
63883;BME280;50047;50.596;30.466;2023-08-08T09:35:41;99035.16;;;25.70;40.24
63883;BME280;50047;50.596;30.466;2023-08-08T09:38:09;99039.19;;;25.79;40.43
63883;BME280;50047;50.596;30.466;2023-08-08T09:40:37;99042.52;;;25.92;40.29
63883;BME280;50047;50.596;30.466;2023-08-08T09:43:07;99038.91;;;25.98;39.79
63883;BME280;50047;50.596;30.466;2023-08-08T09:45:38;99038.64;;;26.00;39.90
63883;BME280;50047;50.596;30.466;2023-08-08T09:48:09;99037.70;;;26.05;39.79
63883;BME280;50047;50.596;30.466;2023-08-08T09:50:37;99045.65;;;26.12;39.39
63883;BME280;50047;50.596;30.466;2023-08-08T09:53:07;99046.90;;;26.24;39.00
63883;BME280;50047;50.596;30.466;2023-08-08T09:55:36;99045.15;;;26.38;38.88
63883;BME280;50047;50.596;30.466;2023-08-08T09:58:06;99044.30;;;26.48;38.91
63883;BME280;50047;50.596;30.466;2023-08-08T10:00:36;99046.92;;;26.47;38.77
63883;BME280;50047;50.596;30.466;2023-08-08T10:03:04;99045.90;;;26.52;38.84
63883;BME280;50047;50.596;30.466;2023-08-08T10:05:33;99049.95;;;26.55;38.85
63883;BME280;50047;50.596;30.466;2023-08-08T10:08:01;99048.53;;;26.60;38.83
63883;BME280;50047;50.596;30.466;2023-08-08T10:10:29;99050.42;;;26.73;38.80
63883;BME280;50047;50.596;30.466;2023-08-08T10:12:58;99048.02;;;26.85;38.75
63883;BME280;50047;50.596;30.466;2023-08-08T10:15:27;99053.36;;;26.95;38.44
63883;BME280;50047;50.596;30.466;2023-08-08T10:17:58;99052.14;;;27.07;38.30
63883;BME280;50047;50.596;30.466;2023-08-08T10:20:26;99040.70;;;27.21;37.92
63883;BME280;50047;50.596;30.466;2023-08-08T10:22:54;99043.44;;;27.28;37.93
63883;BME280;50047;50.596;30.466;2023-08-08T10:25:27;99043.92;;;27.29;37.50
63883;BME280;50047;50.596;30.466;2023-08-08T10:33:20;99052.18;;;27.44;37.29
63883;BME280;50047;50.596;30.466;2023-08-08T10:35:58;99046.61;;;27.59;37.08
63883;BME280;50047;50.596;30.466;2023-08-08T10:38:42;99038.70;;;27.68;36.86
63883;BME280;50047;50.596;30.466;2023-08-08T10:41:18;99037.41;;;27.82;36.33
63883;BME280;50047;50.596;30.466;2023-08-08T10:43:52;99039.44;;;27.85;36.06
63883;BME280;50047;50.596;30.466;2023-08-08T10:46:29;99041.38;;;27.88;36.35
63883;BME280;50047;50.596;30.466;2023-08-08T10:48:59;99044.67;;;27.88;36.34
63883;BME280;50047;50.596;30.466;2023-08-08T10:51:43;99046.56;;;27.84;36.72
63883;BME280;50047;50.596;30.466;2023-08-08T10:54:15;99041.89;;;27.90;37.01
63883;BME280;50047;50.596;30.466;2023-08-08T10:56:50;99039.06;;;27.91;36.54
63883;BME280;50047;50.596;30.466;2023-08-08T10:59:24;99042.48;;;27.97;36.62
63883;BME280;50047;50.596;30.466;2023-08-08T11:01:52;99041.98;;;27.98;36.06
63883;BME280;50047;50.596;30.466;2023-08-08T11:04:22;99048.31;;;27.93;36.37
63883;BME280;50047;50.596;30.466;2023-08-08T11:06:52;99048.44;;;27.96;36.25
63883;BME280;50047;50.596;30.466;2023-08-08T11:09:22;99048.52;;;27.92;36.56
63883;BME280;50047;50.596;30.466;2023-08-08T11:11:50;99053.29;;;27.95;36.26
63883;BME280;50047;50.596;30.466;2023-08-08T11:14:20;99055.09;;;27.95;35.95
63883;BME280;50047;50.596;30.466;2023-08-08T11:16:50;99050.96;;;27.89;35.66
63883;BME280;50047;50.596;30.466;2023-08-08T11:19:20;99040.86;;;27.86;35.66
63883;BME280;50047;50.596;30.466;2023-08-08T11:21:49;99042.39;;;27.88;35.81
63883;BME280;50047;50.596;30.466;2023-08-08T11:24:16;99045.80;;;27.94;36.07
63883;BME280;50047;50.596;30.466;2023-08-08T11:26:45;99047.55;;;28.03;36.06
63883;BME280;50047;50.596;30.466;2023-08-08T11:29:15;99042.50;;;27.93;36.38
63883;BME280;50047;50.596;30.466;2023-08-08T11:31:43;99040.17;;;27.87;36.42
63883;BME280;50047;50.596;30.466;2023-08-08T11:34:11;99045.84;;;27.92;36.33
63883;BME280;50047;50.596;30.466;2023-08-08T11:36:40;99047.47;;;27.98;36.65
63883;BME280;50047;50.596;30.466;2023-08-08T11:39:08;99045.13;;;27.99;36.74
63883;BME280;50047;50.596;30.466;2023-08-08T11:41:40;99045.80;;;27.90;37.17
63883;BME280;50047;50.596;30.466;2023-08-08T11:44:08;99048.27;;;27.79;37.28
63883;BME280;50047;50.596;30.466;2023-08-08T11:46:44;99047.33;;;27.75;37.44
63883;BME280;50047;50.596;30.466;2023-08-08T11:49:15;99044.79;;;27.65;37.28
63883;BME280;50047;50.596;30.466;2023-08-08T11:51:45;99048.41;;;27.66;37.51
63883;BME280;50047;50.596;30.466;2023-08-08T11:54:14;99052.84;;;27.71;37.52
63883;BME280;50047;50.596;30.466;2023-08-08T11:56:43;99052.64;;;27.62;37.40
63883;BME280;50047;50.596;30.466;2023-08-08T11:59:10;99057.73;;;27.54;37.53
63883;BME280;50047;50.596;30.466;2023-08-08T12:01:41;99057.06;;;27.56;37.12
63883;BME280;50047;50.596;30.466;2023-08-08T12:04:10;99057.77;;;27.52;37.09
63883;BME280;50047;50.596;30.466;2023-08-08T12:06:38;99068.14;;;27.59;37.30
63883;BME280;50047;50.596;30.466;2023-08-08T12:09:12;99065.51;;;27.65;37.47
63883;BME280;50047;50.596;30.466;2023-08-08T12:11:42;99072.05;;;27.56;37.24
63883;BME280;50047;50.596;30.466;2023-08-08T12:14:12;99073.88;;;27.49;37.31
63883;BME280;50047;50.596;30.466;2023-08-08T12:16:42;99081.13;;;27.43;37.45
63883;BME280;50047;50.596;30.466;2023-08-08T12:19:11;99079.34;;;27.34;37.47
63883;BME280;50047;50.596;30.466;2023-08-08T12:21:40;99076.69;;;27.28;37.87
63883;BME280;50047;50.596;30.466;2023-08-08T12:24:08;99073.27;;;27.26;38.04
63883;BME280;50047;50.596;30.466;2023-08-08T12:26:36;99075.54;;;27.18;38.40
63883;BME280;50047;50.596;30.466;2023-08-08T12:29:04;99080.63;;;27.11;38.10
63883;BME280;50047;50.596;30.466;2023-08-08T12:31:32;99083.05;;;27.14;37.71
63883;BME280;50047;50.596;30.466;2023-08-08T12:33:59;99081.48;;;27.32;37.67
63883;BME280;50047;50.596;30.466;2023-08-08T12:36:27;99084.64;;;27.49;36.96
63883;BME280;50047;50.596;30.466;2023-08-08T12:38:55;99083.02;;;27.50;36.80
63883;BME280;50047;50.596;30.466;2023-08-08T12:41:23;99082.77;;;27.46;36.87
63883;BME280;50047;50.596;30.466;2023-08-08T12:43:52;99082.25;;;27.38;36.96
63883;BME280;50047;50.596;30.466;2023-08-08T12:46:20;99079.39;;;27.26;37.23
63883;BME280;50047;50.596;30.466;2023-08-08T12:48:47;99073.67;;;27.18;37.39
63883;BME280;50047;50.596;30.466;2023-08-08T12:51:15;99068.76;;;27.20;37.48
63883;BME280;50047;50.596;30.466;2023-08-08T12:53:44;99061.56;;;27.17;37.38
63883;BME280;50047;50.596;30.466;2023-08-08T12:56:12;99067.70;;;27.18;37.02
63883;BME280;50047;50.596;30.466;2023-08-08T12:58:40;99065.92;;;27.19;36.25
63883;BME280;50047;50.596;30.466;2023-08-08T13:01:08;99069.80;;;27.21;36.59
63883;BME280;50047;50.596;30.466;2023-08-08T13:03:36;99069.40;;;27.24;36.46